sensor_id;sensor_type;location;lat;lon;timestamp;pressure;altitude;pressure_sealevel;temperature
48003;BMP280;33768;48.578;11.574;2024-01-30T00:02:44;97853.69;;;-0.69
48003;BMP280;33768;48.578;11.574;2024-01-30T00:05:50;97830.03;;;-0.74
48003;BMP280;33768;48.578;11.574;2024-01-30T00:08:53;97848.47;;;-0.76
48003;BMP280;33768;48.578;11.574;2024-01-30T00:11:58;97841.28;;;-0.79
48003;BMP280;33768;48.578;11.574;2024-01-30T00:15:03;97840.63;;;-0.83
48003;BMP280;33768;48.578;11.574;2024-01-30T00:18:08;97847.97;;;-0.87
48003;BMP280;33768;48.578;11.574;2024-01-30T00:21:13;97849.16;;;-0.88
48003;BMP280;33768;48.578;11.574;2024-01-30T00:24:20;97854.16;;;-0.90
48003;BMP280;33768;48.578;11.574;2024-01-30T00:27:25;97850.06;;;-0.94
48003;BMP280;33768;48.578;11.574;2024-01-30T00:30:29;97855.50;;;-0.97
48003;BMP280;33768;48.578;11.574;2024-01-30T00:33:34;97853.22;;;-0.99
48003;BMP280;33768;48.578;11.574;2024-01-30T00:36:38;97862.34;;;-0.96
48003;BMP280;33768;48.578;11.574;2024-01-30T00:39:42;97864.69;;;-0.98
48003;BMP280;33768;48.578;11.574;2024-01-30T00:42:46;97860.59;;;-1.03
48003;BMP280;33768;48.578;11.574;2024-01-30T00:45:51;97859.50;;;-1.05
48003;BMP280;33768;48.578;11.574;2024-01-30T00:48:58;97863.78;;;-1.08
48003;BMP280;33768;48.578;11.574;2024-01-30T00:52:02;97852.31;;;-1.08
48003;BMP280;33768;48.578;11.574;2024-01-30T00:55:08;97859.16;;;-1.07
48003;BMP280;33768;48.578;11.574;2024-01-30T00:58:13;97858.91;;;-1.13
48003;BMP280;33768;48.578;11.574;2024-01-30T01:01:17;97855.03;;;-1.12
48003;BMP280;33768;48.578;11.574;2024-01-30T01:04:21;97855.88;;;-1.15
48003;BMP280;33768;48.578;11.574;2024-01-30T01:07:27;97854.09;;;-1.21
48003;BMP280;33768;48.578;11.574;2024-01-30T01:10:32;97859.13;;;-1.23
48003;BMP280;33768;48.578;11.574;2024-01-30T01:13:36;97859.53;;;-1.25
48003;BMP280;33768;48.578;11.574;2024-01-30T01:16:40;97863.44;;;-1.29
48003;BMP280;33768;48.578;11.574;2024-01-30T01:19:44;97858.56;;;-1.34
48003;BMP280;33768;48.578;11.574;2024-01-30T01:22:49;97865.13;;;-1.35
48003;BMP280;33768;48.578;11.574;2024-01-30T01:25:53;97857.81;;;-1.34
48003;BMP280;33768;48.578;11.574;2024-01-30T01:28:57;97864.28;;;-1.32
48003;BMP280;33768;48.578;11.574;2024-01-30T01:32:03;97859.25;;;-1.30
48003;BMP280;33768;48.578;11.574;2024-01-30T01:35:07;97860.94;;;-1.36
48003;BMP280;33768;48.578;11.574;2024-01-30T01:38:11;97850.34;;;-1.43
48003;BMP280;33768;48.578;11.574;2024-01-30T01:41:15;97857.28;;;-1.45
48003;BMP280;33768;48.578;11.574;2024-01-30T01:44:20;97862.22;;;-1.44
48003;BMP280;33768;48.578;11.574;2024-01-30T01:47:24;97859.88;;;-1.42
48003;BMP280;33768;48.578;11.574;2024-01-30T01:50:28;97856.84;;;-1.44
48003;BMP280;33768;48.578;11.574;2024-01-30T01:53:33;97860.38;;;-1.47
48003;BMP280;33768;48.578;11.574;2024-01-30T01:56:41;97863.47;;;-1.48
48003;BMP280;33768;48.578;11.574;2024-01-30T01:59:46;97861.56;;;-1.48
48003;BMP280;33768;48.578;11.574;2024-01-30T02:02:50;97864.63;;;-1.49
48003;BMP280;33768;48.578;11.574;2024-01-30T02:05:56;97870.78;;;-1.49
48003;BMP280;33768;48.578;11.574;2024-01-30T02:09:00;97863.47;;;-1.48
48003;BMP280;33768;48.578;11.574;2024-01-30T02:12:04;97864.31;;;-1.51
48003;BMP280;33768;48.578;11.574;2024-01-30T02:15:13;97867.38;;;-1.53
48003;BMP280;33768;48.578;11.574;2024-01-30T02:18:19;97854.97;;;-1.62
48003;BMP280;33768;48.578;11.574;2024-01-30T02:21:39;97856.38;;;-1.77
48003;BMP280;33768;48.578;11.574;2024-01-30T02:24:43;97853.09;;;-1.85
48003;BMP280;33768;48.578;11.574;2024-01-30T02:27:48;97856.59;;;-1.88
48003;BMP280;33768;48.578;11.574;2024-01-30T02:30:52;97852.69;;;-1.83
48003;BMP280;33768;48.578;11.574;2024-01-30T02:33:56;97850.63;;;-1.76
48003;BMP280;33768;48.578;11.574;2024-01-30T02:37:01;97844.72;;;-1.67
48003;BMP280;33768;48.578;11.574;2024-01-30T02:40:06;97855.31;;;-1.60
48003;BMP280;33768;48.578;11.574;2024-01-30T02:43:11;97844.16;;;-1.59
48003;BMP280;33768;48.578;11.574;2024-01-30T02:46:15;97850.31;;;-1.58
48003;BMP280;33768;48.578;11.574;2024-01-30T02:49:19;97846.31;;;-1.70
48003;BMP280;33768;48.578;11.574;2024-01-30T02:52:24;97837.72;;;-1.81
48003;BMP280;33768;48.578;11.574;2024-01-30T02:55:28;97851.03;;;-1.77
48003;BMP280;33768;48.578;11.574;2024-01-30T02:58:33;97843.47;;;-1.82
48003;BMP280;33768;48.578;11.574;2024-01-30T03:01:44;97833.13;;;-1.80
48003;BMP280;33768;48.578;11.574;2024-01-30T03:04:48;97834.56;;;-1.76
48003;BMP280;33768;48.578;11.574;2024-01-30T03:07:52;97824.63;;;-1.75
48003;BMP280;33768;48.578;11.574;2024-01-30T03:10:56;97822.91;;;-1.85
48003;BMP280;33768;48.578;11.574;2024-01-30T03:14:00;97826.41;;;-1.88
48003;BMP280;33768;48.578;11.574;2024-01-30T03:17:05;97837.09;;;-1.88
48003;BMP280;33768;48.578;11.574;2024-01-30T03:20:09;97822.22;;;-1.89
48003;BMP280;33768;48.578;11.574;2024-01-30T03:23:13;97830.56;;;-1.87
48003;BMP280;33768;48.578;11.574;2024-01-30T03:26:19;97823.66;;;-1.85
48003;BMP280;33768;48.578;11.574;2024-01-30T03:29:26;97827.03;;;-1.81
48003;BMP280;33768;48.578;11.574;2024-01-30T03:32:30;97832.28;;;-1.77
48003;BMP280;33768;48.578;11.574;2024-01-30T03:35:34;97819.75;;;-1.80
48003;BMP280;33768;48.578;11.574;2024-01-30T03:38:40;97822.81;;;-1.82
48003;BMP280;33768;48.578;11.574;2024-01-30T03:42:04;97814.13;;;-1.86
48003;BMP280;33768;48.578;11.574;2024-01-30T03:45:10;97822.53;;;-1.87
48003;BMP280;33768;48.578;11.574;2024-01-30T03:48:14;97809.59;;;-1.88
48003;BMP280;33768;48.578;11.574;2024-01-30T03:51:19;97819.47;;;-1.86
48003;BMP280;33768;48.578;11.574;2024-01-30T03:54:23;97813.00;;;-1.88
48003;BMP280;33768;48.578;11.574;2024-01-30T03:57:27;97812.25;;;-1.88
48003;BMP280;33768;48.578;11.574;2024-01-30T04:00:32;97815.69;;;-1.88
48003;BMP280;33768;48.578;11.574;2024-01-30T04:03:36;97824.94;;;-1.92
48003;BMP280;33768;48.578;11.574;2024-01-30T04:06:40;97828.81;;;-1.93
48003;BMP280;33768;48.578;11.574;2024-01-30T04:09:44;97825.38;;;-1.94
48003;BMP280;33768;48.578;11.574;2024-01-30T04:12:51;97823.84;;;-1.95
48003;BMP280;33768;48.578;11.574;2024-01-30T04:15:59;97831.13;;;-1.95
48003;BMP280;33768;48.578;11.574;2024-01-30T04:19:05;97827.34;;;-1.98
48003;BMP280;33768;48.578;11.574;2024-01-30T04:22:10;97819.78;;;-2.03
48003;BMP280;33768;48.578;11.574;2024-01-30T04:25:14;97824.41;;;-2.03
48003;BMP280;33768;48.578;11.574;2024-01-30T04:28:18;97824.44;;;-2.07
48003;BMP280;33768;48.578;11.574;2024-01-30T04:31:22;97834.88;;;-2.12
48003;BMP280;33768;48.578;11.574;2024-01-30T04:34:27;97828.38;;;-2.11
48003;BMP280;33768;48.578;11.574;2024-01-30T04:37:31;97830.22;;;-2.08
48003;BMP280;33768;48.578;11.574;2024-01-30T04:40:35;97830.69;;;-2.13
48003;BMP280;33768;48.578;11.574;2024-01-30T04:43:39;97827.75;;;-2.18
48003;BMP280;33768;48.578;11.574;2024-01-30T04:46:43;97842.25;;;-2.19
48003;BMP280;33768;48.578;11.574;2024-01-30T04:49:47;97839.25;;;-2.21
48003;BMP280;33768;48.578;11.574;2024-01-30T04:52:51;97830.00;;;-2.17
48003;BMP280;33768;48.578;11.574;2024-01-30T04:55:55;97837.53;;;-2.12
48003;BMP280;33768;48.578;11.574;2024-01-30T04:58:59;97834.66;;;-2.21
48003;BMP280;33768;48.578;11.574;2024-01-30T05:02:04;97838.91;;;-2.23
48003;BMP280;33768;48.578;11.574;2024-01-30T05:05:08;97841.22;;;-2.25
48003;BMP280;33768;48.578;11.574;2024-01-30T05:08:12;97839.31;;;-2.25
48003;BMP280;33768;48.578;11.574;2024-01-30T05:11:16;97833.13;;;-2.22
48003;BMP280;33768;48.578;11.574;2024-01-30T05:14:20;97840.38;;;-2.19
48003;BMP280;33768;48.578;11.574;2024-01-30T05:17:25;97837.69;;;-2.19
48003;BMP280;33768;48.578;11.574;2024-01-30T05:20:29;97839.53;;;-2.16
48003;BMP280;33768;48.578;11.574;2024-01-30T05:23:34;97844.91;;;-2.16
48003;BMP280;33768;48.578;11.574;2024-01-30T05:26:38;97833.44;;;-2.17
48003;BMP280;33768;48.578;11.574;2024-01-30T05:29:43;97840.75;;;-2.20
48003;BMP280;33768;48.578;11.574;2024-01-30T05:32:48;97842.34;;;-2.23
48003;BMP280;33768;48.578;11.574;2024-01-30T05:35:52;97843.84;;;-2.22
48003;BMP280;33768;48.578;11.574;2024-01-30T05:38:58;97850.28;;;-2.19
48003;BMP280;33768;48.578;11.574;2024-01-30T05:42:03;97840.00;;;-2.21
48003;BMP280;33768;48.578;11.574;2024-01-30T05:45:28;97835.06;;;-2.22
48003;BMP280;33768;48.578;11.574;2024-01-30T05:48:38;97828.56;;;-2.21
48003;BMP280;33768;48.578;11.574;2024-01-30T05:51:45;97834.78;;;-2.28
48003;BMP280;33768;48.578;11.574;2024-01-30T05:55:24;97835.25;;;-2.33
48003;BMP280;33768;48.578;11.574;2024-01-30T05:58:29;97842.53;;;-2.33
48003;BMP280;33768;48.578;11.574;2024-01-30T06:01:34;97838.66;;;-2.32
48003;BMP280;33768;48.578;11.574;2024-01-30T06:04:38;97838.75;;;-2.36
48003;BMP280;33768;48.578;11.574;2024-01-30T06:07:42;97843.34;;;-2.36
48003;BMP280;33768;48.578;11.574;2024-01-30T06:10:47;97841.53;;;-2.43
48003;BMP280;33768;48.578;11.574;2024-01-30T06:13:57;97840.72;;;-2.40
48003;BMP280;33768;48.578;11.574;2024-01-30T06:17:01;97851.75;;;-2.38
48003;BMP280;33768;48.578;11.574;2024-01-30T06:20:05;97854.84;;;-2.39
48003;BMP280;33768;48.578;11.574;2024-01-30T06:23:10;97862.88;;;-2.39
48003;BMP280;33768;48.578;11.574;2024-01-30T06:26:14;97861.72;;;-2.38
48003;BMP280;33768;48.578;11.574;2024-01-30T06:29:18;97864.75;;;-2.36
48003;BMP280;33768;48.578;11.574;2024-01-30T06:32:22;97875.84;;;-2.38
48003;BMP280;33768;48.578;11.574;2024-01-30T06:35:28;97868.56;;;-2.37
48003;BMP280;33768;48.578;11.574;2024-01-30T06:38:32;97875.84;;;-2.38
48003;BMP280;33768;48.578;11.574;2024-01-30T06:41:37;97877.69;;;-2.35
48003;BMP280;33768;48.578;11.574;2024-01-30T06:44:41;97869.28;;;-2.33
48003;BMP280;33768;48.578;11.574;2024-01-30T06:47:45;97869.66;;;-2.35
48003;BMP280;33768;48.578;11.574;2024-01-30T06:50:49;97875.84;;;-2.38
48003;BMP280;33768;48.578;11.574;2024-01-30T06:53:54;97875.44;;;-2.36
48003;BMP280;33768;48.578;11.574;2024-01-30T06:56:58;97878.41;;;-2.31
48003;BMP280;33768;48.578;11.574;2024-01-30T07:00:05;97881.28;;;-2.22
48003;BMP280;33768;48.578;11.574;2024-01-30T07:03:10;97871.94;;;-2.11
48003;BMP280;33768;48.578;11.574;2024-01-30T07:06:14;97876.47;;;-2.08
48003;BMP280;33768;48.578;11.574;2024-01-30T07:09:19;97873.44;;;-2.10
48003;BMP280;33768;48.578;11.574;2024-01-30T07:12:23;97877.16;;;-2.04
48003;BMP280;33768;48.578;11.574;2024-01-30T07:15:31;97878.56;;;-1.96
48003;BMP280;33768;48.578;11.574;2024-01-30T07:18:35;97879.84;;;-1.85
48003;BMP280;33768;48.578;11.574;2024-01-30T07:21:39;97885.16;;;-1.62
48003;BMP280;33768;48.578;11.574;2024-01-30T07:24:44;97877.09;;;-1.58
48003;BMP280;33768;48.578;11.574;2024-01-30T07:27:49;97884.47;;;-1.47
48003;BMP280;33768;48.578;11.574;2024-01-30T07:30:53;97880.09;;;-1.18
48003;BMP280;33768;48.578;11.574;2024-01-30T07:33:58;97884.91;;;-0.94
48003;BMP280;33768;48.578;11.574;2024-01-30T07:37:02;97892.53;;;-0.93
48003;BMP280;33768;48.578;11.574;2024-01-30T07:40:07;97890.47;;;-0.85
48003;BMP280;33768;48.578;11.574;2024-01-30T07:43:11;97903.13;;;-0.86
48003;BMP280;33768;48.578;11.574;2024-01-30T07:46:16;97902.34;;;-0.86
48003;BMP280;33768;48.578;11.574;2024-01-30T07:49:20;97905.13;;;-0.74
48003;BMP280;33768;48.578;11.574;2024-01-30T07:52:25;97901.91;;;-0.65
48003;BMP280;33768;48.578;11.574;2024-01-30T07:55:29;97906.28;;;-0.24
48003;BMP280;33768;48.578;11.574;2024-01-30T07:58:34;97912.66;;;-0.02
48003;BMP280;33768;48.578;11.574;2024-01-30T08:01:38;97922.59;;;0.13
48003;BMP280;33768;48.578;11.574;2024-01-30T08:04:43;97907.94;;;0.30
48003;BMP280;33768;48.578;11.574;2024-01-30T08:07:47;97912.59;;;0.57
48003;BMP280;33768;48.578;11.574;2024-01-30T08:10:51;97910.78;;;0.66
48003;BMP280;33768;48.578;11.574;2024-01-30T08:13:56;97920.31;;;0.83
48003;BMP280;33768;48.578;11.574;2024-01-30T08:17:00;97925.16;;;1.00
48003;BMP280;33768;48.578;11.574;2024-01-30T08:20:05;97924.31;;;0.91
48003;BMP280;33768;48.578;11.574;2024-01-30T08:23:35;97935.09;;;0.75
48003;BMP280;33768;48.578;11.574;2024-01-30T08:26:39;97925.03;;;0.79
48003;BMP280;33768;48.578;11.574;2024-01-30T08:29:44;97915.09;;;1.04
48003;BMP280;33768;48.578;11.574;2024-01-30T08:32:48;97928.56;;;1.54
48003;BMP280;33768;48.578;11.574;2024-01-30T08:35:52;97918.41;;;2.07
48003;BMP280;33768;48.578;11.574;2024-01-30T08:38:57;97920.06;;;2.59
48003;BMP280;33768;48.578;11.574;2024-01-30T08:42:02;97923.50;;;3.02
48003;BMP280;33768;48.578;11.574;2024-01-30T08:45:07;97924.47;;;3.38
48003;BMP280;33768;48.578;11.574;2024-01-30T08:48:12;97929.50;;;3.57
48003;BMP280;33768;48.578;11.574;2024-01-30T08:51:16;97917.56;;;3.37
48003;BMP280;33768;48.578;11.574;2024-01-30T08:54:21;97918.78;;;3.36
48003;BMP280;33768;48.578;11.574;2024-01-30T08:57:25;97916.84;;;3.45
48003;BMP280;33768;48.578;11.574;2024-01-30T09:00:32;97920.34;;;3.54
48003;BMP280;33768;48.578;11.574;2024-01-30T09:03:36;97916.97;;;3.72
48003;BMP280;33768;48.578;11.574;2024-01-30T09:06:43;97921.63;;;3.71
48003;BMP280;33768;48.578;11.574;2024-01-30T09:09:48;97922.72;;;3.52
48003;BMP280;33768;48.578;11.574;2024-01-30T09:12:53;97922.16;;;3.27
48003;BMP280;33768;48.578;11.574;2024-01-30T09:15:57;97926.38;;;3.07
48003;BMP280;33768;48.578;11.574;2024-01-30T09:19:01;97930.59;;;3.08
48003;BMP280;33768;48.578;11.574;2024-01-30T09:22:06;97925.31;;;3.26
48003;BMP280;33768;48.578;11.574;2024-01-30T09:25:10;97927.56;;;3.57
48003;BMP280;33768;48.578;11.574;2024-01-30T09:28:14;97929.56;;;3.74
48003;BMP280;33768;48.578;11.574;2024-01-30T09:31:18;97926.44;;;3.76
48003;BMP280;33768;48.578;11.574;2024-01-30T09:34:23;97923.75;;;3.76
48003;BMP280;33768;48.578;11.574;2024-01-30T09:37:27;97937.84;;;3.80
48003;BMP280;33768;48.578;11.574;2024-01-30T09:40:31;97932.16;;;3.78
48003;BMP280;33768;48.578;11.574;2024-01-30T09:43:37;97933.66;;;3.88
48003;BMP280;33768;48.578;11.574;2024-01-30T09:46:42;97926.81;;;4.04
48003;BMP280;33768;48.578;11.574;2024-01-30T09:49:47;97934.81;;;4.17
48003;BMP280;33768;48.578;11.574;2024-01-30T09:52:54;97941.59;;;4.21
48003;BMP280;33768;48.578;11.574;2024-01-30T09:56:00;97939.66;;;4.39
48003;BMP280;33768;48.578;11.574;2024-01-30T09:59:06;97928.53;;;4.73
48003;BMP280;33768;48.578;11.574;2024-01-30T10:02:10;97938.59;;;5.08
48003;BMP280;33768;48.578;11.574;2024-01-30T10:05:15;97936.16;;;5.28
48003;BMP280;33768;48.578;11.574;2024-01-30T10:08:22;97946.06;;;5.30
48003;BMP280;33768;48.578;11.574;2024-01-30T12:29:00;97819.13;;;10.24
48003;BMP280;33768;48.578;11.574;2024-01-30T12:38:32;97807.09;;;10.00
48003;BMP280;33768;48.578;11.574;2024-01-30T12:41:37;97816.56;;;10.10
48003;BMP280;33768;48.578;11.574;2024-01-30T12:45:10;97813.09;;;10.09
48003;BMP280;33768;48.578;11.574;2024-01-30T12:48:17;97803.44;;;10.14
48003;BMP280;33768;48.578;11.574;2024-01-30T12:51:22;97808.94;;;10.19
48003;BMP280;33768;48.578;11.574;2024-01-30T12:54:48;97795.03;;;10.23
48003;BMP280;33768;48.578;11.574;2024-01-30T12:57:52;97801.78;;;10.32
48003;BMP280;33768;48.578;11.574;2024-01-30T13:00:57;97803.31;;;10.44
48003;BMP280;33768;48.578;11.574;2024-01-30T13:04:01;97796.59;;;10.40
48003;BMP280;33768;48.578;11.574;2024-01-30T13:07:06;97795.38;;;10.46
48003;BMP280;33768;48.578;11.574;2024-01-30T13:10:11;97795.44;;;10.68
48003;BMP280;33768;48.578;11.574;2024-01-30T13:18:36;97802.38;;;10.63
48003;BMP280;33768;48.578;11.574;2024-01-30T14:40:27;97799.34;;;8.21
48003;BMP280;33768;48.578;11.574;2024-01-30T14:43:33;97804.19;;;8.12
48003;BMP280;33768;48.578;11.574;2024-01-30T14:47:00;97814.44;;;8.02
48003;BMP280;33768;48.578;11.574;2024-01-30T15:01:41;97814.09;;;7.61
48003;BMP280;33768;48.578;11.574;2024-01-30T15:06:04;97816.00;;;7.55
48003;BMP280;33768;48.578;11.574;2024-01-30T15:13:34;97812.72;;;7.51
48003;BMP280;33768;48.578;11.574;2024-01-30T15:16:38;97808.72;;;7.47
48003;BMP280;33768;48.578;11.574;2024-01-30T15:19:43;97801.41;;;7.38
48003;BMP280;33768;48.578;11.574;2024-01-30T15:22:54;97809.41;;;7.27
48003;BMP280;33768;48.578;11.574;2024-01-30T15:26:02;97815.47;;;7.22
48003;BMP280;33768;48.578;11.574;2024-01-30T15:29:06;97819.59;;;7.18
48003;BMP280;33768;48.578;11.574;2024-01-30T15:32:11;97818.97;;;7.09
48003;BMP280;33768;48.578;11.574;2024-01-30T15:35:20;97814.38;;;7.00
48003;BMP280;33768;48.578;11.574;2024-01-30T15:38:37;97821.69;;;6.94
48003;BMP280;33768;48.578;11.574;2024-01-30T15:41:47;97816.63;;;6.87
48003;BMP280;33768;48.578;11.574;2024-01-30T15:44:51;97826.66;;;6.82
48003;BMP280;33768;48.578;11.574;2024-01-30T15:48:14;97829.19;;;6.71
48003;BMP280;33768;48.578;11.574;2024-01-30T15:51:26;97830.09;;;6.54
48003;BMP280;33768;48.578;11.574;2024-01-30T15:55:06;97829.66;;;6.32
48003;BMP280;33768;48.578;11.574;2024-01-30T15:58:43;97822.41;;;6.15
48003;BMP280;33768;48.578;11.574;2024-01-30T16:01:54;97847.97;;;5.99
48003;BMP280;33768;48.578;11.574;2024-01-30T16:05:03;97836.03;;;5.83
48003;BMP280;33768;48.578;11.574;2024-01-30T16:08:07;97843.94;;;5.63
48003;BMP280;33768;48.578;11.574;2024-01-30T16:11:12;97859.53;;;5.45
48003;BMP280;33768;48.578;11.574;2024-01-30T16:14:36;97857.16;;;5.29
48003;BMP280;33768;48.578;11.574;2024-01-30T16:18:02;97859.31;;;5.16
48003;BMP280;33768;48.578;11.574;2024-01-30T16:21:29;97860.72;;;5.03
48003;BMP280;33768;48.578;11.574;2024-01-30T16:24:56;97854.56;;;4.94
48003;BMP280;33768;48.578;11.574;2024-01-30T16:28:19;97857.91;;;4.80
48003;BMP280;33768;48.578;11.574;2024-01-30T16:31:48;97865.13;;;4.65
48003;BMP280;33768;48.578;11.574;2024-01-30T16:35:17;97867.69;;;4.51
48003;BMP280;33768;48.578;11.574;2024-01-30T16:38:42;97871.59;;;4.32
48003;BMP280;33768;48.578;11.574;2024-01-30T16:42:06;97871.59;;;4.23
48003;BMP280;33768;48.578;11.574;2024-01-30T16:45:35;97870.69;;;4.17
48003;BMP280;33768;48.578;11.574;2024-01-30T16:48:58;97864.81;;;4.10
48003;BMP280;33768;48.578;11.574;2024-01-30T16:52:25;97863.63;;;4.02
48003;BMP280;33768;48.578;11.574;2024-01-30T16:55:54;97868.25;;;3.93
48003;BMP280;33768;48.578;11.574;2024-01-30T16:59:27;97868.09;;;3.87
48003;BMP280;33768;48.578;11.574;2024-01-30T17:02:50;97874.22;;;3.79
48003;BMP280;33768;48.578;11.574;2024-01-30T17:06:22;97880.06;;;3.69
48003;BMP280;33768;48.578;11.574;2024-01-30T17:09:52;97891.28;;;3.58
48003;BMP280;33768;48.578;11.574;2024-01-30T17:13:31;97889.00;;;3.48
48003;BMP280;33768;48.578;11.574;2024-01-30T17:16:55;97890.44;;;3.40
48003;BMP280;33768;48.578;11.574;2024-01-30T17:20:23;97891.88;;;3.23
48003;BMP280;33768;48.578;11.574;2024-01-30T17:23:48;97893.44;;;3.12
48003;BMP280;33768;48.578;11.574;2024-01-30T17:27:14;97889.06;;;3.06
48003;BMP280;33768;48.578;11.574;2024-01-30T17:30:43;97888.13;;;3.00
48003;BMP280;33768;48.578;11.574;2024-01-30T17:34:07;97890.66;;;2.94
48003;BMP280;33768;48.578;11.574;2024-01-30T17:37:37;97888.09;;;2.91
48003;BMP280;33768;48.578;11.574;2024-01-30T17:41:01;97894.38;;;2.88
48003;BMP280;33768;48.578;11.574;2024-01-30T17:44:31;97899.13;;;2.84
48003;BMP280;33768;48.578;11.574;2024-01-30T17:47:57;97904.19;;;2.82
48003;BMP280;33768;48.578;11.574;2024-01-30T17:51:23;97899.06;;;2.75
48003;BMP280;33768;48.578;11.574;2024-01-30T17:54:49;97908.78;;;2.73
48003;BMP280;33768;48.578;11.574;2024-01-30T17:58:12;97904.56;;;2.72
48003;BMP280;33768;48.578;11.574;2024-01-30T18:01:16;97911.16;;;2.71
48003;BMP280;33768;48.578;11.574;2024-01-30T18:04:20;97902.34;;;2.70
48003;BMP280;33768;48.578;11.574;2024-01-30T18:07:25;97906.66;;;2.68
48003;BMP280;33768;48.578;11.574;2024-01-30T18:10:30;97900.94;;;2.66
48003;BMP280;33768;48.578;11.574;2024-01-30T18:13:35;97899.13;;;2.63
48003;BMP280;33768;48.578;11.574;2024-01-30T18:16:41;97900.63;;;2.64
48003;BMP280;33768;48.578;11.574;2024-01-30T18:19:47;97907.09;;;2.66
48003;BMP280;33768;48.578;11.574;2024-01-30T18:22:52;97911.72;;;2.66
48003;BMP280;33768;48.578;11.574;2024-01-30T18:25:56;97897.59;;;2.62
48003;BMP280;33768;48.578;11.574;2024-01-30T18:29:03;97899.22;;;2.59
48003;BMP280;33768;48.578;11.574;2024-01-30T18:32:08;97913.16;;;2.58
48003;BMP280;33768;48.578;11.574;2024-01-30T18:35:13;97907.03;;;2.57
48003;BMP280;33768;48.578;11.574;2024-01-30T18:38:17;97910.47;;;2.58
48003;BMP280;33768;48.578;11.574;2024-01-30T18:41:21;97913.28;;;2.54
48003;BMP280;33768;48.578;11.574;2024-01-30T18:44:25;97910.28;;;2.52
48003;BMP280;33768;48.578;11.574;2024-01-30T18:47:30;97916.97;;;2.48
48003;BMP280;33768;48.578;11.574;2024-01-30T18:50:36;97921.16;;;2.49
48003;BMP280;33768;48.578;11.574;2024-01-30T18:53:41;97926.28;;;2.47
48003;BMP280;33768;48.578;11.574;2024-01-30T18:56:49;97927.44;;;2.46
48003;BMP280;33768;48.578;11.574;2024-01-30T19:00:03;97925.75;;;2.40
48003;BMP280;33768;48.578;11.574;2024-01-30T19:03:09;97926.50;;;2.40
48003;BMP280;33768;48.578;11.574;2024-01-30T19:06:13;97923.16;;;2.36
48003;BMP280;33768;48.578;11.574;2024-01-30T19:09:21;97927.59;;;2.30
48003;BMP280;33768;48.578;11.574;2024-01-30T19:12:31;97928.50;;;2.27
48003;BMP280;33768;48.578;11.574;2024-01-30T19:15:45;97928.16;;;2.25
48003;BMP280;33768;48.578;11.574;2024-01-30T19:18:55;97923.19;;;2.24
48003;BMP280;33768;48.578;11.574;2024-01-30T19:22:04;97927.84;;;2.23
48003;BMP280;33768;48.578;11.574;2024-01-30T19:25:08;97929.91;;;2.19
48003;BMP280;33768;48.578;11.574;2024-01-30T19:28:13;97924.19;;;2.17
48003;BMP280;33768;48.578;11.574;2024-01-30T19:31:17;97927.22;;;2.19
48003;BMP280;33768;48.578;11.574;2024-01-30T19:34:21;97932.09;;;2.12
48003;BMP280;33768;48.578;11.574;2024-01-30T19:37:26;97934.13;;;2.08
48003;BMP280;33768;48.578;11.574;2024-01-30T19:40:30;97935.00;;;2.05
48003;BMP280;33768;48.578;11.574;2024-01-30T19:43:35;97936.75;;;1.99
48003;BMP280;33768;48.578;11.574;2024-01-30T19:46:38;97941.06;;;1.97
48003;BMP280;33768;48.578;11.574;2024-01-30T19:49:43;97942.97;;;1.96
48003;BMP280;33768;48.578;11.574;2024-01-30T19:52:48;97941.81;;;1.97
48003;BMP280;33768;48.578;11.574;2024-01-30T19:55:52;97961.41;;;1.98
48003;BMP280;33768;48.578;11.574;2024-01-30T19:58:56;97950.31;;;1.96
48003;BMP280;33768;48.578;11.574;2024-01-30T20:02:02;97961.94;;;1.93
48003;BMP280;33768;48.578;11.574;2024-01-30T20:05:07;97962.06;;;1.89
48003;BMP280;33768;48.578;11.574;2024-01-30T20:08:12;97970.91;;;1.90
48003;BMP280;33768;48.578;11.574;2024-01-30T20:11:19;97963.56;;;1.90
48003;BMP280;33768;48.578;11.574;2024-01-30T20:14:24;97962.06;;;1.89
48003;BMP280;33768;48.578;11.574;2024-01-30T20:17:28;97954.41;;;1.88
48003;BMP280;33768;48.578;11.574;2024-01-30T20:20:33;97960.66;;;1.85
48003;BMP280;33768;48.578;11.574;2024-01-30T20:23:37;97963.03;;;1.83
48003;BMP280;33768;48.578;11.574;2024-01-30T20:26:42;97957.31;;;1.81
48003;BMP280;33768;48.578;11.574;2024-01-30T20:29:48;97955.50;;;1.78
48003;BMP280;33768;48.578;11.574;2024-01-30T20:32:52;97960.53;;;1.76
48003;BMP280;33768;48.578;11.574;2024-01-30T20:35:59;97964.84;;;1.74
48003;BMP280;33768;48.578;11.574;2024-01-30T20:39:05;97971.75;;;1.75
48003;BMP280;33768;48.578;11.574;2024-01-30T20:42:11;97972.31;;;1.70
48003;BMP280;33768;48.578;11.574;2024-01-30T20:45:16;97967.34;;;1.68
48003;BMP280;33768;48.578;11.574;2024-01-30T20:48:20;97975.84;;;1.67
48003;BMP280;33768;48.578;11.574;2024-01-30T20:51:25;97975.41;;;1.68
48003;BMP280;33768;48.578;11.574;2024-01-30T20:54:30;97971.75;;;1.62
48003;BMP280;33768;48.578;11.574;2024-01-30T20:57:35;97977.34;;;1.55
48003;BMP280;33768;48.578;11.574;2024-01-30T21:00:40;97972.41;;;1.54
48003;BMP280;33768;48.578;11.574;2024-01-30T21:03:44;97968.19;;;1.53
48003;BMP280;33768;48.578;11.574;2024-01-30T21:06:48;97972.28;;;1.57
48003;BMP280;33768;48.578;11.574;2024-01-30T21:09:52;97971.88;;;1.59
48003;BMP280;33768;48.578;11.574;2024-01-30T21:12:56;97968.41;;;1.58
48003;BMP280;33768;48.578;11.574;2024-01-30T21:16:01;97967.66;;;1.58
48003;BMP280;33768;48.578;11.574;2024-01-30T21:19:05;97959.16;;;1.59
48003;BMP280;33768;48.578;11.574;2024-01-30T21:22:10;97964.00;;;1.64
48003;BMP280;33768;48.578;11.574;2024-01-30T21:25:15;97966.25;;;1.66
48003;BMP280;33768;48.578;11.574;2024-01-30T21:28:22;97974.03;;;1.64
48003;BMP280;33768;48.578;11.574;2024-01-30T21:31:26;97975.66;;;1.61
48003;BMP280;33768;48.578;11.574;2024-01-30T21:34:30;97972.72;;;1.56
48003;BMP280;33768;48.578;11.574;2024-01-30T21:37:35;97977.34;;;1.55
48003;BMP280;33768;48.578;11.574;2024-01-30T21:40:40;97973.50;;;1.56
48003;BMP280;33768;48.578;11.574;2024-01-30T21:43:54;97968.84;;;1.57
48003;BMP280;33768;48.578;11.574;2024-01-30T21:46:59;97957.63;;;1.58
48003;BMP280;33768;48.578;11.574;2024-01-30T21:50:09;97961.84;;;1.59
48003;BMP280;33768;48.578;11.574;2024-01-30T21:53:21;97966.03;;;1.60
48003;BMP280;33768;48.578;11.574;2024-01-30T21:56:30;97969.47;;;1.61
48003;BMP280;33768;48.578;11.574;2024-01-30T21:59:38;97968.09;;;1.56